sensor_id;sensor_type;location;lat;lon;timestamp;P1;durP1;ratioP1;P2;durP2;ratioP2
17921;SDS011;9086;50.966;3.144;2022-11-14T00:00:45;65.77;;;30.10;;
17921;SDS011;9086;50.966;3.144;2022-11-14T00:03:11;126.00;;;35.67;;
17921;SDS011;9086;50.966;3.144;2022-11-14T00:05:38;129.00;;;35.90;;
17921;SDS011;9086;50.966;3.144;2022-11-14T00:08:05;104.73;;;37.07;;
17921;SDS011;9086;50.966;3.144;2022-11-14T00:10:31;126.33;;;38.23;;
17921;SDS011;9086;50.966;3.144;2022-11-14T00:12:57;126.90;;;36.73;;
17921;SDS011;9086;50.966;3.144;2022-11-14T00:15:23;46.10;;;29.97;;
17921;SDS011;9086;50.966;3.144;2022-11-14T00:17:49;44.10;;;28.63;;
17921;SDS011;9086;50.966;3.144;2022-11-14T00:20:15;50.43;;;27.73;;
17921;SDS011;9086;50.966;3.144;2022-11-14T00:22:41;43.83;;;27.40;;
17921;SDS011;9086;50.966;3.144;2022-11-14T00:25:08;35.10;;;24.77;;
17921;SDS011;9086;50.966;3.144;2022-11-14T00:27:34;73.60;;;29.00;;
17921;SDS011;9086;50.966;3.144;2022-11-14T00:30:00;34.80;;;26.23;;
17921;SDS011;9086;50.966;3.144;2022-11-14T00:32:26;77.03;;;30.87;;
17921;SDS011;9086;50.966;3.144;2022-11-14T00:34:52;41.07;;;27.03;;
17921;SDS011;9086;50.966;3.144;2022-11-14T00:37:18;34.20;;;27.60;;
17921;SDS011;9086;50.966;3.144;2022-11-14T00:39:44;33.03;;;22.73;;
17921;SDS011;9086;50.966;3.144;2022-11-14T00:42:10;28.47;;;21.77;;
17921;SDS011;9086;50.966;3.144;2022-11-14T00:44:36;23.40;;;20.97;;
17921;SDS011;9086;50.966;3.144;2022-11-14T00:47:02;36.57;;;22.60;;
17921;SDS011;9086;50.966;3.144;2022-11-14T00:49:28;26.10;;;19.80;;
17921;SDS011;9086;50.966;3.144;2022-11-14T00:51:54;34.57;;;22.93;;
17921;SDS011;9086;50.966;3.144;2022-11-14T00:54:20;22.43;;;20.33;;
17921;SDS011;9086;50.966;3.144;2022-11-14T00:56:46;25.13;;;21.27;;
17921;SDS011;9086;50.966;3.144;2022-11-14T00:59:12;22.47;;;20.07;;
17921;SDS011;9086;50.966;3.144;2022-11-14T01:01:39;24.07;;;19.73;;
17921;SDS011;9086;50.966;3.144;2022-11-14T01:04:05;34.50;;;22.73;;
17921;SDS011;9086;50.966;3.144;2022-11-14T01:06:31;46.43;;;21.83;;
17921;SDS011;9086;50.966;3.144;2022-11-14T01:08:57;36.03;;;21.03;;
17921;SDS011;9086;50.966;3.144;2022-11-14T01:11:23;32.00;;;21.53;;
17921;SDS011;9086;50.966;3.144;2022-11-14T01:13:49;32.10;;;22.17;;
17921;SDS011;9086;50.966;3.144;2022-11-14T01:16:15;127.93;;;26.43;;
17921;SDS011;9086;50.966;3.144;2022-11-14T01:18:41;53.47;;;22.53;;
17921;SDS011;9086;50.966;3.144;2022-11-14T01:21:08;28.70;;;22.33;;
17921;SDS011;9086;50.966;3.144;2022-11-14T01:23:35;181.73;;;29.23;;
17921;SDS011;9086;50.966;3.144;2022-11-14T01:26:05;38.70;;;21.73;;
17921;SDS011;9086;50.966;3.144;2022-11-14T01:28:31;142.20;;;29.37;;
17921;SDS011;9086;50.966;3.144;2022-11-14T01:31:17;91.43;;;27.00;;
17921;SDS011;9086;50.966;3.144;2022-11-14T01:33:43;86.57;;;28.17;;
17921;SDS011;9086;50.966;3.144;2022-11-14T01:36:09;163.03;;;33.60;;
17921;SDS011;9086;50.966;3.144;2022-11-14T01:38:36;68.07;;;27.43;;
17921;SDS011;9086;50.966;3.144;2022-11-14T01:41:02;99.43;;;29.40;;
17921;SDS011;9086;50.966;3.144;2022-11-14T01:50:54;66.73;;;28.40;;
17921;SDS011;9086;50.966;3.144;2022-11-14T01:53:21;42.03;;;26.70;;
17921;SDS011;9086;50.966;3.144;2022-11-14T01:55:47;106.60;;;31.43;;
17921;SDS011;9086;50.966;3.144;2022-11-14T01:58:14;53.03;;;27.63;;
17921;SDS011;9086;50.966;3.144;2022-11-14T02:00:40;101.37;;;28.93;;
17921;SDS011;9086;50.966;3.144;2022-11-14T02:03:07;99.70;;;31.10;;
17921;SDS011;9086;50.966;3.144;2022-11-14T02:05:33;123.07;;;31.57;;
17921;SDS011;9086;50.966;3.144;2022-11-14T02:07:59;253.20;;;36.83;;
17921;SDS011;9086;50.966;3.144;2022-11-14T02:10:25;237.17;;;34.77;;
17921;SDS011;9086;50.966;3.144;2022-11-14T02:12:51;75.63;;;29.37;;
17921;SDS011;9086;50.966;3.144;2022-11-14T02:15:18;103.93;;;31.30;;
17921;SDS011;9086;50.966;3.144;2022-11-14T02:17:44;32.87;;;25.47;;
17921;SDS011;9086;50.966;3.144;2022-11-14T02:22:36;33.13;;;24.67;;
17921;SDS011;9086;50.966;3.144;2022-11-14T02:25:03;31.43;;;25.57;;
17921;SDS011;9086;50.966;3.144;2022-11-14T02:27:30;75.53;;;30.47;;
17921;SDS011;9086;50.966;3.144;2022-11-14T02:30:06;58.03;;;28.07;;
17921;SDS011;9086;50.966;3.144;2022-11-14T02:32:33;56.43;;;27.30;;
17921;SDS011;9086;50.966;3.144;2022-11-14T02:34:59;37.70;;;27.07;;
17921;SDS011;9086;50.966;3.144;2022-11-14T02:37:25;31.27;;;26.77;;
17921;SDS011;9086;50.966;3.144;2022-11-14T02:39:51;29.17;;;26.00;;
17921;SDS011;9086;50.966;3.144;2022-11-14T02:42:17;50.87;;;27.70;;
17921;SDS011;9086;50.966;3.144;2022-11-14T02:44:43;49.60;;;27.57;;
17921;SDS011;9086;50.966;3.144;2022-11-14T02:47:09;38.63;;;27.17;;
17921;SDS011;9086;50.966;3.144;2022-11-14T02:49:35;43.63;;;26.97;;
17921;SDS011;9086;50.966;3.144;2022-11-14T02:52:01;60.67;;;28.83;;
17921;SDS011;9086;50.966;3.144;2022-11-14T02:54:27;70.33;;;29.37;;
17921;SDS011;9086;50.966;3.144;2022-11-14T02:56:53;37.77;;;28.60;;
17921;SDS011;9086;50.966;3.144;2022-11-14T02:59:19;108.63;;;32.60;;
17921;SDS011;9086;50.966;3.144;2022-11-14T03:01:45;46.33;;;27.93;;
17921;SDS011;9086;50.966;3.144;2022-11-14T03:04:11;31.23;;;25.80;;
17921;SDS011;9086;50.966;3.144;2022-11-14T03:06:38;47.23;;;28.77;;
17921;SDS011;9086;50.966;3.144;2022-11-14T03:09:04;47.60;;;29.57;;
17921;SDS011;9086;50.966;3.144;2022-11-14T03:11:30;53.20;;;29.73;;
17921;SDS011;9086;50.966;3.144;2022-11-14T03:13:56;86.17;;;31.23;;
17921;SDS011;9086;50.966;3.144;2022-11-14T03:16:23;198.13;;;35.00;;
17921;SDS011;9086;50.966;3.144;2022-11-14T03:18:49;98.07;;;33.27;;
17921;SDS011;9086;50.966;3.144;2022-11-14T03:21:19;75.63;;;27.50;;
17921;SDS011;9086;50.966;3.144;2022-11-14T03:23:45;50.60;;;25.67;;
17921;SDS011;9086;50.966;3.144;2022-11-14T03:26:12;39.07;;;25.00;;
17921;SDS011;9086;50.966;3.144;2022-11-14T03:28:38;59.50;;;25.33;;
17921;SDS011;9086;50.966;3.144;2022-11-14T03:31:05;44.93;;;25.40;;
17921;SDS011;9086;50.966;3.144;2022-11-14T03:33:31;55.47;;;25.43;;
17921;SDS011;9086;50.966;3.144;2022-11-14T03:35:57;62.10;;;28.07;;
17921;SDS011;9086;50.966;3.144;2022-11-14T03:38:23;83.27;;;27.43;;
17921;SDS011;9086;50.966;3.144;2022-11-14T03:40:50;39.90;;;25.43;;
17921;SDS011;9086;50.966;3.144;2022-11-14T03:43:20;137.60;;;30.83;;
17921;SDS011;9086;50.966;3.144;2022-11-14T03:45:46;82.13;;;27.10;;
17921;SDS011;9086;50.966;3.144;2022-11-14T03:48:12;205.93;;;36.47;;
17921;SDS011;9086;50.966;3.144;2022-11-14T03:50:39;91.03;;;28.10;;
17921;SDS011;9086;50.966;3.144;2022-11-14T03:53:05;81.13;;;27.70;;
17921;SDS011;9086;50.966;3.144;2022-11-14T03:55:31;178.67;;;32.50;;
17921;SDS011;9086;50.966;3.144;2022-11-14T03:57:57;140.10;;;30.20;;
17921;SDS011;9086;50.966;3.144;2022-11-14T04:00:23;55.50;;;26.27;;
17921;SDS011;9086;50.966;3.144;2022-11-14T04:02:52;40.63;;;24.73;;
17921;SDS011;9086;50.966;3.144;2022-11-14T04:05:18;71.43;;;27.73;;
17921;SDS011;9086;50.966;3.144;2022-11-14T04:07:44;57.60;;;27.47;;
17921;SDS011;9086;50.966;3.144;2022-11-14T04:10:10;56.27;;;25.13;;
17921;SDS011;9086;50.966;3.144;2022-11-14T04:12:37;30.07;;;23.00;;
17921;SDS011;9086;50.966;3.144;2022-11-14T04:15:03;46.63;;;26.03;;
17921;SDS011;9086;50.966;3.144;2022-11-14T04:17:29;44.43;;;26.37;;
17921;SDS011;9086;50.966;3.144;2022-11-14T04:19:55;43.03;;;25.47;;
17921;SDS011;9086;50.966;3.144;2022-11-14T04:22:21;56.73;;;25.07;;
17921;SDS011;9086;50.966;3.144;2022-11-14T04:24:47;55.00;;;25.60;;
17921;SDS011;9086;50.966;3.144;2022-11-14T04:27:13;37.17;;;23.80;;
17921;SDS011;9086;50.966;3.144;2022-11-14T04:29:39;32.07;;;24.07;;
17921;SDS011;9086;50.966;3.144;2022-11-14T04:32:05;33.97;;;22.97;;
17921;SDS011;9086;50.966;3.144;2022-11-14T04:34:31;35.40;;;23.53;;
17921;SDS011;9086;50.966;3.144;2022-11-14T04:36:57;28.90;;;22.17;;
17921;SDS011;9086;50.966;3.144;2022-11-14T04:39:23;40.60;;;23.17;;
17921;SDS011;9086;50.966;3.144;2022-11-14T04:41:49;30.97;;;22.13;;
17921;SDS011;9086;50.966;3.144;2022-11-14T04:44:15;55.03;;;24.60;;
17921;SDS011;9086;50.966;3.144;2022-11-14T04:46:41;57.80;;;23.63;;
17921;SDS011;9086;50.966;3.144;2022-11-14T04:49:07;24.07;;;21.60;;
17921;SDS011;9086;50.966;3.144;2022-11-14T04:51:33;29.90;;;22.03;;
17921;SDS011;9086;50.966;3.144;2022-11-14T04:53:59;25.70;;;20.07;;
17921;SDS011;9086;50.966;3.144;2022-11-14T04:56:25;25.00;;;21.23;;
17921;SDS011;9086;50.966;3.144;2022-11-14T04:58:53;25.67;;;21.80;;
17921;SDS011;9086;50.966;3.144;2022-11-14T05:01:19;22.80;;;19.53;;
17921;SDS011;9086;50.966;3.144;2022-11-14T05:03:45;31.87;;;20.50;;
17921;SDS011;9086;50.966;3.144;2022-11-14T05:06:11;32.07;;;21.73;;
17921;SDS011;9086;50.966;3.144;2022-11-14T05:08:37;27.03;;;20.17;;
17921;SDS011;9086;50.966;3.144;2022-11-14T05:11:03;23.00;;;19.50;;
17921;SDS011;9086;50.966;3.144;2022-11-14T05:13:29;28.30;;;19.70;;
17921;SDS011;9086;50.966;3.144;2022-11-14T05:15:58;26.80;;;21.30;;
17921;SDS011;9086;50.966;3.144;2022-11-14T05:18:25;24.37;;;19.77;;
17921;SDS011;9086;50.966;3.144;2022-11-14T05:20:51;26.57;;;20.20;;
17921;SDS011;9086;50.966;3.144;2022-11-14T05:23:19;29.13;;;18.87;;
17921;SDS011;9086;50.966;3.144;2022-11-14T05:25:45;20.57;;;18.40;;
17921;SDS011;9086;50.966;3.144;2022-11-14T05:28:11;41.07;;;21.50;;
17921;SDS011;9086;50.966;3.144;2022-11-14T05:30:37;23.83;;;17.93;;
17921;SDS011;9086;50.966;3.144;2022-11-14T05:33:03;20.60;;;18.40;;
17921;SDS011;9086;50.966;3.144;2022-11-14T05:35:32;32.37;;;18.90;;
17921;SDS011;9086;50.966;3.144;2022-11-14T05:38:01;19.10;;;17.00;;
17921;SDS011;9086;50.966;3.144;2022-11-14T05:40:27;30.40;;;17.13;;
17921;SDS011;9086;50.966;3.144;2022-11-14T05:42:54;21.80;;;17.73;;
17921;SDS011;9086;50.966;3.144;2022-11-14T05:45:20;20.80;;;17.17;;
17921;SDS011;9086;50.966;3.144;2022-11-14T05:47:46;40.67;;;19.90;;
17921;SDS011;9086;50.966;3.144;2022-11-14T05:50:12;31.67;;;17.27;;
17921;SDS011;9086;50.966;3.144;2022-11-14T05:52:40;22.37;;;16.77;;
17921;SDS011;9086;50.966;3.144;2022-11-14T05:55:06;35.67;;;16.73;;
17921;SDS011;9086;50.966;3.144;2022-11-14T05:57:32;24.40;;;15.80;;
17921;SDS011;9086;50.966;3.144;2022-11-14T05:59:59;18.57;;;15.77;;
17921;SDS011;9086;50.966;3.144;2022-11-14T06:02:25;28.10;;;17.40;;
17921;SDS011;9086;50.966;3.144;2022-11-14T06:04:51;27.37;;;17.07;;
17921;SDS011;9086;50.966;3.144;2022-11-14T06:07:17;18.37;;;16.40;;
17921;SDS011;9086;50.966;3.144;2022-11-14T06:09:44;18.87;;;15.93;;
17921;SDS011;9086;50.966;3.144;2022-11-14T06:12:10;17.33;;;15.50;;
17921;SDS011;9086;50.966;3.144;2022-11-14T06:14:36;15.97;;;14.40;;
17921;SDS011;9086;50.966;3.144;2022-11-14T06:17:02;15.67;;;13.93;;
17921;SDS011;9086;50.966;3.144;2022-11-14T06:19:28;15.47;;;13.50;;
17921;SDS011;9086;50.966;3.144;2022-11-14T06:21:54;15.43;;;13.83;;
17921;SDS011;9086;50.966;3.144;2022-11-14T06:24:20;17.38;;;15.52;;
17921;SDS011;9086;50.966;3.144;2022-11-14T06:26:46;17.67;;;15.73;;
17921;SDS011;9086;50.966;3.144;2022-11-14T06:29:12;16.47;;;14.73;;
17921;SDS011;9086;50.966;3.144;2022-11-14T06:31:38;16.40;;;14.07;;
17921;SDS011;9086;50.966;3.144;2022-11-14T06:34:04;21.37;;;16.50;;
17921;SDS011;9086;50.966;3.144;2022-11-14T06:36:30;22.33;;;17.20;;
17921;SDS011;9086;50.966;3.144;2022-11-14T06:38:57;25.90;;;18.13;;
17921;SDS011;9086;50.966;3.144;2022-11-14T06:41:26;29.40;;;19.23;;
17921;SDS011;9086;50.966;3.144;2022-11-14T06:43:53;31.73;;;19.77;;
17921;SDS011;9086;50.966;3.144;2022-11-14T06:46:19;31.27;;;20.60;;
17921;SDS011;9086;50.966;3.144;2022-11-14T06:48:46;31.00;;;19.73;;
17921;SDS011;9086;50.966;3.144;2022-11-14T06:51:16;29.13;;;19.27;;
17921;SDS011;9086;50.966;3.144;2022-11-14T06:53:42;24.63;;;18.87;;
17921;SDS011;9086;50.966;3.144;2022-11-14T06:56:09;29.27;;;18.67;;
17921;SDS011;9086;50.966;3.144;2022-11-14T06:58:39;35.28;;;26.58;;
17921;SDS011;9086;50.966;3.144;2022-11-14T07:01:22;106.63;;;26.40;;
17921;SDS011;9086;50.966;3.144;2022-11-14T07:03:52;49.40;;;20.20;;
17921;SDS011;9086;50.966;3.144;2022-11-14T07:06:20;37.43;;;19.33;;
17921;SDS011;9086;50.966;3.144;2022-11-14T07:08:46;32.23;;;17.40;;
17921;SDS011;9086;50.966;3.144;2022-11-14T07:11:14;34.23;;;17.40;;
17921;SDS011;9086;50.966;3.144;2022-11-14T07:14:00;29.67;;;17.10;;
17921;SDS011;9086;50.966;3.144;2022-11-14T07:16:30;33.87;;;18.27;;
17921;SDS011;9086;50.966;3.144;2022-11-14T07:18:57;29.50;;;19.17;;
17921;SDS011;9086;50.966;3.144;2022-11-14T07:21:24;33.70;;;20.07;;
17921;SDS011;9086;50.966;3.144;2022-11-14T07:23:50;32.07;;;19.90;;
17921;SDS011;9086;50.966;3.144;2022-11-14T07:26:16;32.20;;;20.27;;
17921;SDS011;9086;50.966;3.144;2022-11-14T07:28:42;31.37;;;20.23;;
17921;SDS011;9086;50.966;3.144;2022-11-14T07:31:10;30.77;;;19.03;;
17921;SDS011;9086;50.966;3.144;2022-11-14T07:33:40;34.57;;;22.03;;
17921;SDS011;9086;50.966;3.144;2022-11-14T07:36:06;40.10;;;23.27;;
17921;SDS011;9086;50.966;3.144;2022-11-14T07:38:33;34.10;;;21.77;;
17921;SDS011;9086;50.966;3.144;2022-11-14T07:41:00;34.40;;;22.70;;
17921;SDS011;9086;50.966;3.144;2022-11-14T07:43:27;30.83;;;21.03;;
17921;SDS011;9086;50.966;3.144;2022-11-14T07:45:53;30.97;;;20.63;;
17921;SDS011;9086;50.966;3.144;2022-11-14T07:48:23;32.47;;;22.10;;
17921;SDS011;9086;50.966;3.144;2022-11-14T07:50:49;40.03;;;23.97;;
17921;SDS011;9086;50.966;3.144;2022-11-14T07:53:15;45.20;;;26.70;;
17921;SDS011;9086;50.966;3.144;2022-11-14T07:55:42;43.83;;;26.47;;
17921;SDS011;9086;50.966;3.144;2022-11-14T07:58:08;38.90;;;25.87;;
17921;SDS011;9086;50.966;3.144;2022-11-14T08:00:34;39.47;;;24.87;;
17921;SDS011;9086;50.966;3.144;2022-11-14T08:03:00;68.37;;;25.33;;
17921;SDS011;9086;50.966;3.144;2022-11-14T08:05:26;97.37;;;28.57;;
17921;SDS011;9086;50.966;3.144;2022-11-14T08:07:52;81.87;;;27.57;;
17921;SDS011;9086;50.966;3.144;2022-11-14T08:10:18;108.97;;;27.43;;
17921;SDS011;9086;50.966;3.144;2022-11-14T08:12:44;131.97;;;27.53;;
17921;SDS011;9086;50.966;3.144;2022-11-14T08:15:12;165.57;;;28.80;;
17921;SDS011;9086;50.966;3.144;2022-11-14T08:17:38;112.03;;;26.00;;
17921;SDS011;9086;50.966;3.144;2022-11-14T08:20:05;89.73;;;25.27;;
17921;SDS011;9086;50.966;3.144;2022-11-14T08:22:31;134.60;;;26.70;;
17921;SDS011;9086;50.966;3.144;2022-11-14T08:24:58;149.10;;;29.37;;
17921;SDS011;9086;50.966;3.144;2022-11-14T08:27:24;121.37;;;26.27;;
17921;SDS011;9086;50.966;3.144;2022-11-14T08:29:50;102.03;;;23.23;;
17921;SDS011;9086;50.966;3.144;2022-11-14T08:32:17;94.77;;;24.77;;
17921;SDS011;9086;50.966;3.144;2022-11-14T08:34:43;96.60;;;24.40;;
17921;SDS011;9086;50.966;3.144;2022-11-14T08:37:09;131.53;;;22.80;;
17921;SDS011;9086;50.966;3.144;2022-11-14T08:39:35;87.33;;;22.70;;
17921;SDS011;9086;50.966;3.144;2022-11-14T08:42:01;78.27;;;21.50;;
17921;SDS011;9086;50.966;3.144;2022-11-14T08:44:27;97.33;;;22.73;;
17921;SDS011;9086;50.966;3.144;2022-11-14T08:46:56;113.50;;;24.63;;
17921;SDS011;9086;50.966;3.144;2022-11-14T08:49:24;66.40;;;19.13;;
17921;SDS011;9086;50.966;3.144;2022-11-14T08:51:51;71.93;;;21.13;;
17921;SDS011;9086;50.966;3.144;2022-11-14T08:54:17;74.30;;;20.33;;
17921;SDS011;9086;50.966;3.144;2022-11-14T08:56:43;55.50;;;20.47;;
17921;SDS011;9086;50.966;3.144;2022-11-14T08:59:09;58.53;;;20.33;;
17921;SDS011;9086;50.966;3.144;2022-11-14T09:01:35;42.77;;;19.83;;
17921;SDS011;9086;50.966;3.144;2022-11-14T09:04:04;32.90;;;17.67;;
17921;SDS011;9086;50.966;3.144;2022-11-14T09:06:30;38.90;;;19.10;;
17921;SDS011;9086;50.966;3.144;2022-11-14T09:08:56;43.10;;;19.47;;
17921;SDS011;9086;50.966;3.144;2022-11-14T09:11:23;41.57;;;19.57;;
17921;SDS011;9086;50.966;3.144;2022-11-14T09:13:49;38.10;;;19.03;;
17921;SDS011;9086;50.966;3.144;2022-11-14T09:16:15;42.57;;;20.13;;
17921;SDS011;9086;50.966;3.144;2022-11-14T09:18:41;44.63;;;26.17;;
17921;SDS011;9086;50.966;3.144;2022-11-14T09:21:08;37.03;;;24.37;;
17921;SDS011;9086;50.966;3.144;2022-11-14T09:23:35;42.93;;;25.47;;
17921;SDS011;9086;50.966;3.144;2022-11-14T09:26:04;49.07;;;28.07;;
17921;SDS011;9086;50.966;3.144;2022-11-14T09:28:30;41.27;;;26.53;;
17921;SDS011;9086;50.966;3.144;2022-11-14T09:31:03;34.50;;;23.40;;
17921;SDS011;9086;50.966;3.144;2022-11-14T09:33:30;38.37;;;24.87;;
17921;SDS011;9086;50.966;3.144;2022-11-14T09:36:00;54.73;;;30.70;;
17921;SDS011;9086;50.966;3.144;2022-11-14T09:38:27;51.10;;;27.17;;
17921;SDS011;9086;50.966;3.144;2022-11-14T09:46:16;34.33;;;21.67;;
17921;SDS011;9086;50.966;3.144;2022-11-14T09:48:48;32.27;;;20.90;;
17921;SDS011;9086;50.966;3.144;2022-11-14T09:51:28;34.10;;;21.93;;
17921;SDS011;9086;50.966;3.144;2022-11-14T09:53:57;40.47;;;24.97;;
17921;SDS011;9086;50.966;3.144;2022-11-14T09:56:26;33.13;;;19.03;;
17921;SDS011;9086;50.966;3.144;2022-11-14T09:58:52;41.07;;;23.17;;
17921;SDS011;9086;50.966;3.144;2022-11-14T10:01:40;36.50;;;24.37;;
17921;SDS011;9086;50.966;3.144;2022-11-14T10:04:39;36.10;;;21.43;;
17921;SDS011;9086;50.966;3.144;2022-11-14T10:14:48;42.50;;;25.63;;
17921;SDS011;9086;50.966;3.144;2022-11-14T10:27:51;37.70;;;22.30;;
17921;SDS011;9086;50.966;3.144;2022-11-14T10:30:19;41.13;;;25.57;;
17921;SDS011;9086;50.966;3.144;2022-11-14T10:42:43;42.47;;;27.47;;
17921;SDS011;9086;50.966;3.144;2022-11-14T10:47:45;35.70;;;23.70;;
17921;SDS011;9086;50.966;3.144;2022-11-14T10:50:14;48.00;;;31.73;;
17921;SDS011;9086;50.966;3.144;2022-11-14T10:52:43;39.13;;;28.20;;
17921;SDS011;9086;50.966;3.144;2022-11-14T10:55:14;31.13;;;23.27;;
17921;SDS011;9086;50.966;3.144;2022-11-14T10:57:41;30.23;;;21.67;;
17921;SDS011;9086;50.966;3.144;2022-11-14T11:00:11;35.40;;;22.77;;
17921;SDS011;9086;50.966;3.144;2022-11-14T11:02:46;33.67;;;24.87;;
17921;SDS011;9086;50.966;3.144;2022-11-14T11:05:16;31.83;;;23.27;;
17921;SDS011;9086;50.966;3.144;2022-11-14T11:07:44;34.03;;;25.07;;
17921;SDS011;9086;50.966;3.144;2022-11-14T11:10:29;30.17;;;23.57;;
17921;SDS011;9086;50.966;3.144;2022-11-14T11:13:14;43.03;;;27.43;;
17921;SDS011;9086;50.966;3.144;2022-11-14T11:15:54;48.17;;;31.77;;
17921;SDS011;9086;50.966;3.144;2022-11-14T11:21:03;54.27;;;35.30;;
17921;SDS011;9086;50.966;3.144;2022-11-14T11:23:30;47.90;;;33.90;;
17921;SDS011;9086;50.966;3.144;2022-11-14T11:25:59;49.83;;;35.57;;
17921;SDS011;9086;50.966;3.144;2022-11-14T11:28:30;43.00;;;31.77;;
17921;SDS011;9086;50.966;3.144;2022-11-14T11:30:57;39.77;;;28.77;;
17921;SDS011;9086;50.966;3.144;2022-11-14T11:35:51;44.07;;;31.43;;
17921;SDS011;9086;50.966;3.144;2022-11-14T11:38:18;33.90;;;25.80;;
17921;SDS011;9086;50.966;3.144;2022-11-14T11:40:45;33.13;;;26.20;;
17921;SDS011;9086;50.966;3.144;2022-11-14T11:43:14;28.83;;;25.80;;
17921;SDS011;9086;50.966;3.144;2022-11-14T11:45:43;41.80;;;32.60;;
17921;SDS011;9086;50.966;3.144;2022-11-14T11:50:40;42.20;;;26.63;;
17921;SDS011;9086;50.966;3.144;2022-11-14T11:55:49;63.70;;;29.93;;
17921;SDS011;9086;50.966;3.144;2022-11-14T11:58:23;63.33;;;31.13;;
17921;SDS011;9086;50.966;3.144;2022-11-14T12:00:53;33.83;;;24.43;;
17921;SDS011;9086;50.966;3.144;2022-11-14T12:03:20;36.53;;;27.67;;
17921;SDS011;9086;50.966;3.144;2022-11-14T12:08:30;42.70;;;31.03;;
17921;SDS011;9086;50.966;3.144;2022-11-14T12:10:57;46.03;;;31.37;;
17921;SDS011;9086;50.966;3.144;2022-11-14T12:16:15;42.20;;;29.73;;
17921;SDS011;9086;50.966;3.144;2022-11-14T12:21:24;43.53;;;27.50;;
17921;SDS011;9086;50.966;3.144;2022-11-14T12:31:47;37.13;;;25.37;;
17921;SDS011;9086;50.966;3.144;2022-11-14T12:36:42;34.57;;;25.03;;
17921;SDS011;9086;50.966;3.144;2022-11-14T12:39:18;35.37;;;27.53;;
17921;SDS011;9086;50.966;3.144;2022-11-14T12:41:45;34.47;;;25.97;;
17921;SDS011;9086;50.966;3.144;2022-11-14T12:47:10;33.03;;;25.33;;
17921;SDS011;9086;50.966;3.144;2022-11-14T12:49:38;33.83;;;26.63;;
17921;SDS011;9086;50.966;3.144;2022-11-14T12:55:52;31.20;;;24.93;;
17921;SDS011;9086;50.966;3.144;2022-11-14T13:00:33;37.13;;;27.73;;
17921;SDS011;9086;50.966;3.144;2022-11-14T13:05:35;35.60;;;27.27;;
17921;SDS011;9086;50.966;3.144;2022-11-14T13:08:07;33.33;;;25.90;;
17921;SDS011;9086;50.966;3.144;2022-11-14T13:10:36;32.30;;;25.77;;
17921;SDS011;9086;50.966;3.144;2022-11-14T13:13:06;28.00;;;22.63;;
17921;SDS011;9086;50.966;3.144;2022-11-14T13:18:48;35.27;;;25.27;;
17921;SDS011;9086;50.966;3.144;2022-11-14T13:21:33;33.33;;;22.27;;
17921;SDS011;9086;50.966;3.144;2022-11-14T13:24:18;28.00;;;21.33;;
17921;SDS011;9086;50.966;3.144;2022-11-14T13:31:55;34.70;;;25.13;;
17921;SDS011;9086;50.966;3.144;2022-11-14T13:39:43;26.43;;;22.87;;
17921;SDS011;9086;50.966;3.144;2022-11-14T13:47:20;32.93;;;24.73;;
17921;SDS011;9086;50.966;3.144;2022-11-14T13:52:16;38.13;;;25.63;;
17921;SDS011;9086;50.966;3.144;2022-11-14T13:54:44;31.77;;;22.47;;
17921;SDS011;9086;50.966;3.144;2022-11-14T14:00:09;43.27;;;27.10;;
17921;SDS011;9086;50.966;3.144;2022-11-14T14:08:13;42.43;;;31.07;;
17921;SDS011;9086;50.966;3.144;2022-11-14T14:10:47;38.10;;;27.57;;
17921;SDS011;9086;50.966;3.144;2022-11-14T14:13:32;37.80;;;27.10;;
17921;SDS011;9086;50.966;3.144;2022-11-14T14:29:23;39.90;;;30.20;;
17921;SDS011;9086;50.966;3.144;2022-11-14T14:31:50;39.07;;;29.67;;
17921;SDS011;9086;50.966;3.144;2022-11-14T14:34:34;43.47;;;31.97;;
17921;SDS011;9086;50.966;3.144;2022-11-14T14:37:00;39.37;;;29.93;;
17921;SDS011;9086;50.966;3.144;2022-11-14T14:39:26;39.20;;;28.63;;
17921;SDS011;9086;50.966;3.144;2022-11-14T14:41:53;32.93;;;24.93;;
17921;SDS011;9086;50.966;3.144;2022-11-14T14:44:25;35.57;;;26.47;;
17921;SDS011;9086;50.966;3.144;2022-11-14T14:46:51;35.70;;;27.33;;
17921;SDS011;9086;50.966;3.144;2022-11-14T14:49:19;44.80;;;31.87;;
17921;SDS011;9086;50.966;3.144;2022-11-14T14:51:46;47.40;;;33.20;;
17921;SDS011;9086;50.966;3.144;2022-11-14T14:54:22;44.30;;;32.30;;
17921;SDS011;9086;50.966;3.144;2022-11-14T14:56:56;46.07;;;30.67;;
17921;SDS011;9086;50.966;3.144;2022-11-14T14:59:29;47.03;;;31.83;;
17921;SDS011;9086;50.966;3.144;2022-11-14T15:01:55;39.17;;;30.80;;
17921;SDS011;9086;50.966;3.144;2022-11-14T15:04:23;39.47;;;31.33;;
17921;SDS011;9086;50.966;3.144;2022-11-14T15:06:50;40.80;;;31.13;;
17921;SDS011;9086;50.966;3.144;2022-11-14T15:09:18;39.47;;;29.73;;
17921;SDS011;9086;50.966;3.144;2022-11-14T15:11:46;45.10;;;32.60;;
17921;SDS011;9086;50.966;3.144;2022-11-14T15:14:13;48.40;;;31.20;;
17921;SDS011;9086;50.966;3.144;2022-11-14T15:16:41;44.57;;;31.63;;
17921;SDS011;9086;50.966;3.144;2022-11-14T15:19:09;46.93;;;32.50;;
17921;SDS011;9086;50.966;3.144;2022-11-14T15:21:37;61.97;;;37.23;;
17921;SDS011;9086;50.966;3.144;2022-11-14T15:24:19;42.80;;;31.63;;
17921;SDS011;9086;50.966;3.144;2022-11-14T15:26:51;43.33;;;29.30;;
17921;SDS011;9086;50.966;3.144;2022-11-14T15:31:51;40.10;;;28.50;;
17921;SDS011;9086;50.966;3.144;2022-11-14T15:34:34;46.60;;;29.43;;
17921;SDS011;9086;50.966;3.144;2022-11-14T15:39:32;43.23;;;30.87;;
17921;SDS011;9086;50.966;3.144;2022-11-14T15:44:43;41.07;;;30.37;;
17921;SDS011;9086;50.966;3.144;2022-11-14T15:47:21;36.87;;;29.47;;
17921;SDS011;9086;50.966;3.144;2022-11-14T15:50:30;41.37;;;28.60;;
17921;SDS011;9086;50.966;3.144;2022-11-14T15:52:37;42.47;;;31.13;;
17921;SDS011;9086;50.966;3.144;2022-11-14T15:55:22;48.47;;;30.67;;
17921;SDS011;9086;50.966;3.144;2022-11-14T15:57:48;42.00;;;32.80;;
17921;SDS011;9086;50.966;3.144;2022-11-14T16:00:15;42.87;;;34.03;;
17921;SDS011;9086;50.966;3.144;2022-11-14T16:02:43;44.63;;;31.93;;
17921;SDS011;9086;50.966;3.144;2022-11-14T16:05:12;45.77;;;33.67;;
17921;SDS011;9086;50.966;3.144;2022-11-14T16:07:39;43.90;;;31.73;;
17921;SDS011;9086;50.966;3.144;2022-11-14T16:10:09;42.90;;;31.50;;
17921;SDS011;9086;50.966;3.144;2022-11-14T16:12:38;44.47;;;30.67;;
17921;SDS011;9086;50.966;3.144;2022-11-14T16:15:04;43.27;;;32.10;;
17921;SDS011;9086;50.966;3.144;2022-11-14T16:17:33;42.37;;;29.70;;
17921;SDS011;9086;50.966;3.144;2022-11-14T16:20:02;39.63;;;29.57;;
17921;SDS011;9086;50.966;3.144;2022-11-14T16:22:29;42.17;;;29.70;;
17921;SDS011;9086;50.966;3.144;2022-11-14T16:24:57;42.27;;;30.40;;
17921;SDS011;9086;50.966;3.144;2022-11-14T16:27:24;48.80;;;28.87;;
17921;SDS011;9086;50.966;3.144;2022-11-14T16:29:50;40.70;;;28.93;;
17921;SDS011;9086;50.966;3.144;2022-11-14T16:32:16;50.27;;;32.47;;
17921;SDS011;9086;50.966;3.144;2022-11-14T16:34:42;43.10;;;28.50;;
17921;SDS011;9086;50.966;3.144;2022-11-14T16:37:12;41.53;;;29.90;;
17921;SDS011;9086;50.966;3.144;2022-11-14T16:39:38;45.03;;;28.50;;
17921;SDS011;9086;50.966;3.144;2022-11-14T16:42:07;44.50;;;29.73;;
17921;SDS011;9086;50.966;3.144;2022-11-14T16:44:34;39.60;;;27.33;;
17921;SDS011;9086;50.966;3.144;2022-11-14T16:47:00;44.93;;;29.77;;
17921;SDS011;9086;50.966;3.144;2022-11-14T16:49:26;36.23;;;28.10;;
17921;SDS011;9086;50.966;3.144;2022-11-14T16:51:52;39.60;;;26.73;;
17921;SDS011;9086;50.966;3.144;2022-11-14T16:54:20;39.40;;;26.30;;